Time;durP1;ratioP1;P1;durP2;ratioP2;P2;SDS_P1;SDS_P2;PMS_P1;PMS_P2;Temp;Humidity;BMP_temperature;BMP_pressure;BME280_temperature;BME280_humidity;BME280_pressure;Samples;Min_cycle;Max_cycle;Signal;HPM_P1;HPM_P2
2021/09/13 00:01:04;;;;;;;3.42;3.13;;;19.70;75.80;;;;;;5063632;28;20559;-90
2021/09/13 00:03:30;;;;;;;3.58;3.30;;;19.80;75.60;;;;;;5046921;28;20220;-90
2021/09/13 00:05:56;;;;;;;3.88;3.58;;;19.80;75.10;;;;;;5057066;28;20692;-90
2021/09/13 00:08:24;;;;;;;3.83;3.53;;;19.60;76.00;;;;;;5080729;28;20188;-90
2021/09/13 00:10:50;;;;;;;4.07;3.72;;;19.60;76.90;;;;;;5048601;28;20188;-90
2021/09/13 00:13:16;;;;;;;3.80;3.50;;;19.60;76.70;;;;;;5076938;28;20217;-90
2021/09/13 00:15:42;;;;;;;3.70;3.38;;;19.60;76.10;;;;;;5078353;28;20357;-90
2021/09/13 00:18:09;;;;;;;4.10;3.47;;;19.50;76.50;;;;;;5060388;28;20296;-90
2021/09/13 00:20:35;;;;;;;5.45;3.40;;;19.60;76.40;;;;;;5078962;28;20195;-90
2021/09/13 00:23:01;;;;;;;4.82;3.63;;;19.50;76.60;;;;;;5078486;28;20208;-90
2021/09/13 00:25:26;;;;;;;3.42;3.22;;;19.50;76.40;;;;;;5050876;28;20194;-89
2021/09/13 00:27:53;;;;;;;5.05;3.80;;;19.40;76.50;;;;;;5077287;28;20232;-90
2021/09/13 00:30:20;;;;;;;4.30;3.90;;;19.10;77.60;;;;;;5072516;28;20199;-89
2021/09/13 00:32:45;;;;;;;3.92;3.60;;;18.90;78.60;;;;;;5067643;28;20325;-90
2021/09/13 00:35:11;;;;;;;4.00;3.60;;;18.80;78.90;;;;;;5065457;28;20604;-90
2021/09/13 00:37:37;;;;;;;3.90;3.60;;;18.60;79.30;;;;;;5046221;28;20212;-90
2021/09/13 00:40:04;;;;;;;6.28;3.58;;;18.70;79.70;;;;;;5067724;28;20724;-90
2021/09/13 00:42:33;;;;;;;4.40;3.88;;;18.70;79.40;;;;;;5048431;28;20206;-89
2021/09/13 00:45:00;;;;;;;4.40;4.00;;;18.90;78.70;;;;;;5058966;28;20196;-90
2021/09/13 00:47:25;;;;;;;4.05;3.55;;;18.90;78.50;;;;;;5075693;28;20344;-90
2021/09/13 00:49:51;;;;;;;5.63;3.83;;;18.70;78.80;;;;;;5084369;28;20191;-90
2021/09/13 00:52:18;;;;;;;6.07;3.65;;;18.60;80.00;;;;;;5063893;28;20223;-90
2021/09/13 00:54:45;;;;;;;4.00;3.70;;;18.60;79.60;;;;;;5074532;28;20236;-90
2021/09/13 00:57:12;;;;;;;4.10;3.78;;;18.70;79.20;;;;;;5068412;28;20211;-90
2021/09/13 00:59:37;;;;;;;5.20;3.88;;;18.80;78.10;;;;;;5063415;28;20202;-90
2021/09/13 01:02:04;;;;;;;3.72;3.42;;;18.80;78.10;;;;;;5083151;28;20216;-90
2021/09/13 01:04:30;;;;;;;3.92;3.33;;;18.90;77.70;;;;;;5088344;28;20229;-91
2021/09/13 01:06:56;;;;;;;5.97;3.85;;;19.00;77.90;;;;;;5089632;28;20281;-90
2021/09/13 01:09:22;;;;;;;4.55;4.25;;;19.00;77.10;;;;;;5086322;28;20184;-90
2021/09/13 01:11:49;;;;;;;5.43;4.72;;;19.10;77.20;;;;;;5054000;28;20232;-90
2021/09/13 01:14:16;;;;;;;4.68;4.28;;;18.90;78.70;;;;;;5053268;28;20191;-89
2021/09/13 01:16:42;;;;;;;4.60;4.20;;;18.80;79.80;;;;;;5081694;28;20217;-90
2021/09/13 01:19:08;;;;;;;4.50;4.15;;;18.70;79.50;;;;;;5082290;28;20179;-90
2021/09/13 01:21:38;;;;;;;4.00;3.70;;;18.70;79.20;;;;;;5067049;28;20202;-90
2021/09/13 01:24:05;;;;;;;4.00;3.67;;;18.80;79.00;;;;;;5071666;28;20235;-90
2021/09/13 01:26:31;;;;;;;4.95;3.88;;;18.80;78.80;;;;;;5078452;28;20211;-89
2021/09/13 01:28:57;;;;;;;3.97;3.63;;;18.90;78.50;;;;;;5080146;28;20602;-90
2021/09/13 01:31:23;;;;;;;4.20;3.90;;;18.90;77.60;;;;;;5071101;28;20208;-90
2021/09/13 01:33:49;;;;;;;4.75;4.28;;;18.90;77.10;;;;;;5065187;28;20218;-90
2021/09/13 01:36:15;;;;;;;4.60;4.20;;;18.80;77.60;;;;;;5063430;28;20211;-90
2021/09/13 01:38:41;;;;;;;4.82;4.30;;;18.80;78.30;;;;;;5067243;28;20246;-90
2021/09/13 01:41:07;;;;;;;4.38;3.97;;;18.80;78.40;;;;;;5080830;28;20192;-90
2021/09/13 01:43:33;;;;;;;4.43;4.03;;;18.80;78.40;;;;;;5083464;28;20207;-89
2021/09/13 01:45:59;;;;;;;5.03;3.63;;;18.80;78.10;;;;;;5067135;28;20231;-90
2021/09/13 01:48:25;;;;;;;4.32;3.70;;;18.80;78.10;;;;;;5066991;28;20187;-90
2021/09/13 01:50:51;;;;;;;3.95;3.53;;;18.90;77.80;;;;;;5085130;28;20214;-90
2021/09/13 01:53:17;;;;;;;4.75;4.20;;;18.90;77.80;;;;;;5084783;28;20188;-90
2021/09/13 01:55:43;;;;;;;4.38;4.07;;;18.90;77.90;;;;;;5076573;28;20188;-90
2021/09/13 01:58:08;;;;;;;5.55;5.10;;;19.00;78.10;;;;;;5053623;28;20258;-90
2021/09/13 02:00:34;;;;;;;4.80;4.20;;;19.00;78.20;;;;;;5037353;28;20249;-90
2021/09/13 02:03:00;;;;;;;5.10;4.70;;;19.10;77.70;;;;;;5087199;28;20311;-89
2021/09/13 02:05:26;;;;;;;4.85;4.40;;;19.00;77.80;;;;;;5080488;28;20200;-90
2021/09/13 02:07:52;;;;;;;5.00;4.20;;;19.00;77.90;;;;;;5047281;28;20481;-90
2021/09/13 02:10:18;;;;;;;6.40;4.18;;;18.70;77.30;;;;;;5086105;28;20199;-89
2021/09/13 02:12:44;;;;;;;4.70;4.32;;;18.60;79.10;;;;;;5078120;28;20191;-90
2021/09/13 02:15:10;;;;;;;5.10;4.60;;;18.60;79.40;;;;;;5079373;28;20218;-90
2021/09/13 02:17:36;;;;;;;4.75;4.20;;;18.70;79.30;;;;;;5051226;28;20208;-91
2021/09/13 02:20:02;;;;;;;5.40;5.00;;;18.70;79.30;;;;;;5059708;28;20191;-90
2021/09/13 02:22:28;;;;;;;4.30;3.95;;;18.80;78.50;;;;;;5081191;28;20219;-90
2021/09/13 02:24:54;;;;;;;5.20;4.80;;;18.80;78.60;;;;;;5078574;28;20196;-89
2021/09/13 02:27:19;;;;;;;4.75;4.35;;;18.80;78.30;;;;;;5068076;28;20212;-90
2021/09/13 02:29:45;;;;;;;5.00;4.35;;;18.80;78.30;;;;;;5059728;28;20266;-90
2021/09/13 02:32:11;;;;;;;4.97;4.45;;;18.60;77.70;;;;;;5057305;28;20214;-90
2021/09/13 02:34:37;;;;;;;5.00;4.53;;;18.30;78.70;;;;;;5050432;28;20195;-90
2021/09/13 02:37:03;;;;;;;4.78;4.22;;;18.10;79.50;;;;;;5083993;28;20513;-90
2021/09/13 02:39:28;;;;;;;4.72;4.15;;;17.90;81.10;;;;;;5056066;28;20672;-90
2021/09/13 02:41:54;;;;;;;4.05;3.75;;;17.80;81.60;;;;;;5037940;28;20226;-90
2021/09/13 02:44:20;;;;;;;6.90;4.20;;;17.80;81.80;;;;;;5083149;28;20257;-89
2021/09/13 02:46:46;;;;;;;4.85;4.32;;;18.00;81.70;;;;;;5061508;28;20270;-90
2021/09/13 02:49:12;;;;;;;5.20;4.72;;;18.00;81.30;;;;;;5042766;28;20197;-90
2021/09/13 02:51:38;;;;;;;5.85;5.43;;;18.10;81.70;;;;;;5064372;28;20195;-89
2021/09/13 02:54:03;;;;;;;5.13;4.72;;;18.10;82.00;;;;;;5053834;28;20191;-90
2021/09/13 02:56:29;;;;;;;4.80;4.50;;;18.20;81.40;;;;;;5055601;28;20270;-90
2021/09/13 02:58:55;;;;;;;5.03;4.53;;;18.20;80.80;;;;;;5050823;28;20182;-90
2021/09/13 03:01:21;;;;;;;5.40;4.93;;;18.30;80.60;;;;;;5082147;28;20332;-90
2021/09/13 03:03:47;;;;;;;5.57;4.90;;;18.40;80.30;;;;;;5080555;28;20215;-89
2021/09/13 03:06:13;;;;;;;5.22;4.72;;;18.30;80.00;;;;;;5079910;28;20258;-89
2021/09/13 03:08:39;;;;;;;6.38;5.13;;;18.40;80.10;;;;;;5061888;28;20187;-90
2021/09/13 03:11:05;;;;;;;5.68;5.05;;;18.40;79.20;;;;;;5080828;28;20183;-90
2021/09/13 03:13:31;;;;;;;5.85;5.13;;;18.30;80.70;;;;;;5081508;28;20191;-90
2021/09/13 03:15:56;;;;;;;6.10;5.55;;;18.10;80.20;;;;;;5084473;28;20189;-90
2021/09/13 03:18:22;;;;;;;5.65;5.25;;;18.10;81.10;;;;;;5081674;28;20222;-89
2021/09/13 03:20:48;;;;;;;5.72;5.22;;;18.00;81.00;;;;;;5046612;28;20207;-89
2021/09/13 03:23:14;;;;;;;6.28;5.78;;;18.00;82.00;;;;;;5083683;28;20211;-90
2021/09/13 03:25:39;;;;;;;6.15;5.70;;;17.90;83.00;;;;;;5095243;28;20255;-90
2021/09/13 03:28:05;;;;;;;6.30;5.70;;;17.80;83.00;;;;;;5073804;28;20288;-90
2021/09/13 03:30:31;;;;;;;7.50;6.72;;;17.70;84.00;;;;;;5093387;28;20217;-89
2021/09/13 03:32:57;;;;;;;6.80;6.20;;;17.60;84.10;;;;;;5078482;28;20198;-90
2021/09/13 03:35:22;;;;;;;6.68;6.07;;;17.60;84.60;;;;;;5080637;28;20218;-89
2021/09/13 03:37:48;;;;;;;7.97;7.38;;;17.70;84.40;;;;;;5071533;28;20219;-90
2021/09/13 03:40:14;;;;;;;7.50;6.75;;;17.70;84.10;;;;;;5081376;28;20203;-90
2021/09/13 03:42:40;;;;;;;9.00;7.22;;;17.60;84.30;;;;;;5080028;28;20226;-90
2021/09/13 03:45:06;;;;;;;7.13;6.43;;;17.60;84.30;;;;;;5058168;28;20194;-90
2021/09/13 03:47:32;;;;;;;7.00;6.40;;;17.60;84.50;;;;;;5064469;28;20698;-91
2021/09/13 03:49:58;;;;;;;6.72;6.10;;;17.50;84.50;;;;;;5056631;28;20202;-90
2021/09/13 03:52:24;;;;;;;6.18;5.68;;;17.50;83.80;;;;;;5083598;28;20186;-90
2021/09/13 03:54:49;;;;;;;5.90;5.40;;;17.70;83.70;;;;;;5094564;28;20196;-89
2021/09/13 03:57:15;;;;;;;6.80;6.30;;;17.70;83.80;;;;;;5094894;28;20202;-89
2021/09/13 03:59:41;;;;;;;6.47;5.97;;;17.70;83.20;;;;;;5085668;28;20283;-90
2021/09/13 04:02:07;;;;;;;6.75;6.15;;;17.70;83.70;;;;;;5069386;28;20213;-89
2021/09/13 04:04:33;;;;;;;6.28;5.78;;;17.70;83.70;;;;;;5064166;28;20237;-89
2021/09/13 04:07:20;;;;;;;9.00;6.47;;;17.70;83.60;;;;;;5064307;28;20229;-89
2021/09/13 04:10:00;;;;;;;7.10;6.40;;;17.60;84.00;;;;;;5078988;28;20221;-90
2021/09/13 04:12:26;;;;;;;6.60;6.00;;;17.40;84.80;;;;;;5051966;28;20190;-89
2021/09/13 04:14:52;;;;;;;6.70;6.10;;;17.30;85.50;;;;;;5085693;28;20222;-90
2021/09/13 04:17:18;;;;;;;7.07;6.47;;;17.20;85.60;;;;;;5083911;28;20245;-90
2021/09/13 04:19:43;;;;;;;6.40;5.90;;;17.20;85.50;;;;;;5080304;28;20198;-90
2021/09/13 04:22:12;;;;;;;7.13;6.40;;;17.30;85.90;;;;;;5084994;28;20204;-91
2021/09/13 04:24:38;;;;;;;6.77;6.17;;;17.30;85.30;;;;;;5057561;28;20199;-90
2021/09/13 04:27:04;;;;;;;6.10;5.63;;;17.40;85.00;;;;;;5037198;28;20689;-90
2021/09/13 04:29:30;;;;;;;6.63;6.13;;;17.40;84.80;;;;;;5076975;28;20202;-87
2021/09/13 04:31:56;;;;;;;7.47;6.77;;;17.40;84.90;;;;;;5041350;28;20263;-89
2021/09/13 04:34:22;;;;;;;6.33;5.93;;;17.20;85.40;;;;;;5040117;28;20204;-89
2021/09/13 04:36:48;;;;;;;6.30;5.70;;;17.10;86.50;;;;;;5074090;28;20218;-89
2021/09/13 04:39:14;;;;;;;6.37;5.77;;;17.20;86.30;;;;;;5054865;28;20207;-88
2021/09/13 04:41:40;;;;;;;6.80;6.17;;;17.20;85.10;;;;;;5086251;28;20179;-88
2021/09/13 04:44:06;;;;;;;6.57;6.03;;;17.10;85.90;;;;;;5062079;28;20662;-89
2021/09/13 04:46:32;;;;;;;6.70;6.03;;;17.20;85.60;;;;;;5071811;28;20256;-89
2021/09/13 04:48:58;;;;;;;7.67;5.97;;;17.20;86.00;;;;;;5058275;28;20198;-88
2021/09/13 04:51:23;;;;;;;6.50;5.90;;;17.20;85.90;;;;;;5056274;28;20198;-88
2021/09/13 04:53:49;;;;;;;6.97;6.47;;;17.20;86.10;;;;;;5073883;28;20193;-88
2021/09/13 04:56:15;;;;;;;7.27;6.60;;;17.20;86.20;;;;;;5075788;28;20207;-88
2021/09/13 04:58:40;;;;;;;7.77;5.97;;;17.20;86.60;;;;;;5060604;28;20210;-87
2021/09/13 05:01:08;;;;;;;10.80;6.73;;;17.30;86.00;;;;;;5066002;28;20208;-86
2021/09/13 05:03:34;;;;;;;8.23;6.35;;;17.40;85.50;;;;;;5055996;28;20218;-87
2021/09/13 05:06:00;;;;;;;7.00;5.53;;;17.30;85.80;;;;;;5073008;28;20186;-88
2021/09/13 05:08:26;;;;;;;6.47;5.88;;;17.40;85.60;;;;;;5061261;28;20191;-87
2021/09/13 05:10:52;;;;;;;8.73;6.88;;;17.50;85.10;;;;;;5060139;28;20553;-87
2021/09/13 05:13:18;;;;;;;7.35;6.65;;;17.60;84.70;;;;;;5064737;28;20190;-86
2021/09/13 05:15:44;;;;;;;11.65;6.28;;;17.60;84.50;;;;;;5050056;28;20690;-85
2021/09/13 05:18:09;;;;;;;8.32;6.32;;;17.50;85.00;;;;;;5067722;28;20633;-85
2021/09/13 05:20:35;;;;;;;6.72;6.03;;;17.50;84.90;;;;;;5083789;28;20198;-85
2021/09/13 05:23:02;;;;;;;6.13;5.70;;;17.50;84.80;;;;;;5082380;28;20214;-86
2021/09/13 05:25:28;;;;;;;6.93;6.32;;;17.60;85.40;;;;;;5084632;28;20250;-85
2021/09/13 05:27:54;;;;;;;6.35;5.82;;;17.70;84.30;;;;;;5083963;28;20215;-84
2021/09/13 05:30:20;;;;;;;7.28;6.53;;;17.70;84.30;;;;;;5084771;28;20199;-86
2021/09/13 05:32:45;;;;;;;7.45;6.75;;;17.60;84.10;;;;;;5067080;28;20288;-84
2021/09/13 05:35:12;;;;;;;6.00;5.50;;;17.60;84.30;;;;;;5082715;28;20202;-88
2021/09/13 05:37:37;;;;;;;6.78;6.25;;;17.70;84.40;;;;;;5073938;28;20371;-88
2021/09/13 05:40:06;;;;;;;7.38;6.35;;;17.70;83.90;;;;;;5060513;28;20197;-87
2021/09/13 05:42:33;;;;;;;7.40;6.80;;;17.60;84.30;;;;;;5067064;28;20217;-87
2021/09/13 05:44:59;;;;;;;7.82;6.35;;;17.60;84.30;;;;;;5071906;28;20183;-87
2021/09/13 05:47:27;;;;;;;7.18;6.57;;;17.60;84.50;;;;;;5073679;28;20237;-87
2021/09/13 05:49:54;;;;;;;7.35;6.65;;;17.50;84.70;;;;;;5072826;28;20790;-86
2021/09/13 05:52:20;;;;;;;7.63;7.03;;;17.40;85.50;;;;;;5074643;28;20191;-87
2021/09/13 05:54:45;;;;;;;8.00;7.30;;;17.20;86.30;;;;;;5069550;28;20629;-86
2021/09/13 05:57:11;;;;;;;7.17;6.57;;;17.00;86.90;;;;;;5070057;28;20216;-86
2021/09/13 05:59:37;;;;;;;7.50;6.80;;;16.90;87.50;;;;;;5066535;28;20273;-87
2021/09/13 06:02:03;;;;;;;7.37;6.77;;;16.80;88.20;;;;;;5067955;28;20266;-86
2021/09/13 06:04:32;;;;;;;7.30;6.60;;;16.70;88.80;;;;;;5071080;28;20191;-86
2021/09/13 06:06:58;;;;;;;7.83;7.13;;;16.80;88.50;;;;;;5073798;28;20883;-86
2021/09/13 06:09:24;;;;;;;7.63;7.03;;;16.70;89.00;;;;;;5072635;28;20282;-87
2021/09/13 06:11:49;;;;;;;8.23;6.80;;;16.80;89.50;;;;;;5071111;28;20184;-87
2021/09/13 06:14:16;;;;;;;7.63;6.90;;;16.90;88.60;;;;;;5067320;28;20188;-86
2021/09/13 06:16:43;;;;;;;8.00;7.30;;;16.80;88.70;;;;;;5071422;28;20234;-87
2021/09/13 06:19:09;;;;;;;8.83;7.90;;;16.80;89.30;;;;;;5073823;28;20187;-87
2021/09/13 06:21:36;;;;;;;8.33;7.50;;;16.80;88.80;;;;;;5020476;28;20881;-87
2021/09/13 06:24:02;;;;;;;8.73;7.03;;;16.80;88.70;;;;;;5069471;28;21504;-86
2021/09/13 06:26:28;;;;;;;8.17;7.57;;;16.70;88.30;;;;;;5050502;28;20226;-87
2021/09/13 06:28:54;;;;;;;8.40;7.57;;;16.70;88.80;;;;;;5058225;28;20222;-87
2021/09/13 06:31:20;;;;;;;8.00;7.20;;;16.80;88.80;;;;;;5053419;28;20215;-87
2021/09/13 06:33:46;;;;;;;8.63;7.83;;;17.00;88.20;;;;;;5049407;28;20206;-86
2021/09/13 06:36:12;;;;;;;10.73;7.30;;;17.00;88.10;;;;;;5033493;28;20680;-87
2021/09/13 06:38:38;;;;;;;10.67;7.63;;;16.90;88.50;;;;;;5042651;28;20194;-87
2021/09/13 06:41:03;;;;;;;8.27;7.50;;;16.80;88.30;;;;;;5032318;28;20285;-87
2021/09/13 06:43:29;;;;;;;8.30;7.60;;;16.90;88.50;;;;;;5064050;28;20242;-87
2021/09/13 06:46:22;;;;;;;9.17;8.33;;;17.00;88.30;;;;;;5070095;28;20184;-85
2021/09/13 06:48:46;;;;;;;8.00;7.30;;;17.00;87.90;;;;;;5066661;28;20195;-87
2021/09/13 06:51:12;;;;;;;9.30;7.47;;;17.10;87.40;;;;;;5066825;28;20287;-85
2021/09/13 06:53:38;;;;;;;7.80;7.10;;;17.20;86.70;;;;;;5069692;28;20205;-86
2021/09/13 06:56:04;;;;;;;7.80;7.03;;;17.10;86.90;;;;;;5055953;28;20202;-87
2021/09/13 06:58:32;;;;;;;8.80;8.00;;;17.20;86.90;;;;;;5056975;28;20196;-86
2021/09/13 07:00:58;;;;;;;7.83;7.10;;;17.30;85.80;;;;;;5059777;28;20196;-87
2021/09/13 07:03:24;;;;;;;10.00;7.63;;;17.20;86.10;;;;;;5053872;28;20212;-87
2021/09/13 07:05:50;;;;;;;9.80;7.17;;;17.40;85.00;;;;;;5061186;28;20256;-87
2021/09/13 07:08:17;;;;;;;8.97;8.17;;;17.30;85.40;;;;;;5059234;28;20229;-87
2021/09/13 07:10:43;;;;;;;8.67;7.87;;;17.20;86.00;;;;;;5074945;28;20813;-87
2021/09/13 07:13:09;;;;;;;9.30;8.27;;;17.20;85.80;;;;;;5076217;28;20184;-86
2021/09/13 07:15:34;;;;;;;9.10;7.43;;;17.20;86.80;;;;;;5078767;28;20188;-87
2021/09/13 07:18:01;;;;;;;8.57;7.77;;;17.30;86.00;;;;;;5072723;28;20210;-88
2021/09/13 07:20:26;;;;;;;8.33;7.47;;;17.40;84.80;;;;;;5069011;28;20199;-87
2021/09/13 07:22:52;;;;;;;8.13;7.37;;;17.30;85.50;;;;;;5076299;28;20211;-88
2021/09/13 07:25:18;;;;;;;8.13;7.40;;;17.30;85.70;;;;;;5073998;28;20188;-87
2021/09/13 07:27:44;;;;;;;7.97;7.27;;;17.30;86.30;;;;;;5057081;28;20199;-88
2021/09/13 07:30:11;;;;;;;7.73;7.13;;;17.30;85.40;;;;;;5058761;28;20196;-87
2021/09/13 07:32:37;;;;;;;8.43;7.57;;;17.40;85.20;;;;;;5072160;28;20195;-87
2021/09/13 07:35:06;;;;;;;9.63;8.63;;;17.50;84.40;;;;;;5074692;28;20644;-87
2021/09/13 07:37:32;;;;;;;8.00;7.20;;;17.50;85.00;;;;;;5059547;28;20826;-88
2021/09/13 07:39:58;;;;;;;9.23;7.43;;;17.60;85.00;;;;;;5074955;28;20596;-88
2021/09/13 07:42:23;;;;;;;8.40;7.70;;;17.70;84.50;;;;;;5067315;28;20216;-87
2021/09/13 07:44:50;;;;;;;8.20;7.37;;;17.80;84.00;;;;;;5044205;28;20314;-87
2021/09/13 07:47:18;;;;;;;8.53;7.77;;;18.00;83.40;;;;;;5076670;28;20201;-87
2021/09/13 07:49:44;;;;;;;8.10;7.40;;;18.00;82.50;;;;;;5070171;28;20196;-88
2021/09/13 07:52:10;;;;;;;8.90;8.20;;;18.10;83.10;;;;;;5065612;28;20193;-87
2021/09/13 07:54:35;;;;;;;8.70;7.33;;;18.00;82.60;;;;;;5080789;28;20185;-88
2021/09/13 07:57:01;;;;;;;9.33;8.53;;;18.20;82.50;;;;;;5069196;28;20236;-88
2021/09/13 07:59:27;;;;;;;9.17;8.27;;;18.20;82.10;;;;;;5067620;28;20218;-88
2021/09/13 08:01:53;;;;;;;8.93;8.03;;;18.20;82.00;;;;;;5045258;28;20638;-88
2021/09/13 08:04:19;;;;;;;9.10;8.37;;;18.10;82.50;;;;;;5083325;28;20208;-88
2021/09/13 08:06:47;;;;;;;9.83;8.87;;;18.20;82.60;;;;;;5061182;28;20224;-88
2021/09/13 08:09:13;;;;;;;9.23;8.43;;;18.40;81.40;;;;;;5080727;28;20203;-87
2021/09/13 08:11:40;;;;;;;11.57;8.93;;;18.40;81.50;;;;;;5059977;28;20750;-88
2021/09/13 08:14:06;;;;;;;8.75;7.88;;;18.50;81.20;;;;;;5072695;28;20185;-88
2021/09/13 08:16:32;;;;;;;8.85;8.02;;;18.70;81.30;;;;;;5060773;28;20320;-88
2021/09/13 08:18:59;;;;;;;9.63;8.32;;;18.70;81.60;;;;;;5063604;28;20190;-88
2021/09/13 08:21:27;;;;;;;10.07;9.03;;;18.80;80.60;;;;;;5069252;28;20198;-88
2021/09/13 08:23:53;;;;;;;10.17;8.23;;;18.80;80.70;;;;;;5066296;28;20295;-88
2021/09/13 08:26:18;;;;;;;9.25;8.35;;;18.70;80.60;;;;;;5081572;28;20240;-88
2021/09/13 08:28:44;;;;;;;8.77;8.02;;;18.90;81.10;;;;;;5064131;28;20195;-88
2021/09/13 08:31:11;;;;;;;11.52;7.63;;;19.00;80.30;;;;;;5064732;28;20215;-88
2021/09/13 08:33:37;;;;;;;8.32;7.63;;;19.10;79.80;;;;;;5062772;28;20571;-88
2021/09/13 08:36:04;;;;;;;8.07;7.43;;;19.20;80.10;;;;;;5068909;28;20548;-88
2021/09/13 08:38:30;;;;;;;8.10;7.38;;;19.20;79.20;;;;;;5072594;28;20217;-88
2021/09/13 08:40:57;;;;;;;8.48;7.65;;;19.30;78.70;;;;;;5077542;28;20194;-88
2021/09/13 08:43:23;;;;;;;8.65;7.75;;;19.40;78.80;;;;;;5077057;28;20210;-88
2021/09/13 08:45:56;;;;;;;8.80;7.90;;;19.60;78.90;;;;;;5076110;28;20187;-87
2021/09/13 08:53:37;;;;;;;7.13;6.53;;;20.00;76.30;;;;;;5093866;28;20195;-87
2021/09/13 08:56:04;;;;;;;9.10;8.23;;;20.00;77.10;;;;;;5069641;28;20211;-88
2021/09/13 08:58:36;;;;;;;8.30;7.60;;;20.10;76.30;;;;;;5081740;28;20195;-88
2021/09/13 09:01:03;;;;;;;8.45;7.70;;;20.10;76.20;;;;;;5081078;28;20656;-87
2021/09/13 09:03:30;;;;;;;7.18;6.53;;;20.20;76.20;;;;;;5071771;28;20707;-88
2021/09/13 09:05:56;;;;;;;6.70;6.15;;;20.30;76.10;;;;;;5080312;28;20195;-88
2021/09/13 09:08:27;;;;;;;9.00;7.60;;;20.50;75.80;;;;;;5065669;28;20742;-88
2021/09/13 09:10:55;;;;;;;7.80;6.72;;;20.70;74.70;;;;;;5079132;28;20184;-88
2021/09/13 09:13:22;;;;;;;6.75;6.15;;;20.80;74.90;;;;;;5075141;28;20261;-88
2021/09/13 09:15:59;;;;;;;7.25;6.55;;;21.10;73.80;;;;;;5047939;28;20192;-88
2021/09/13 09:18:38;;;;;;;6.28;5.72;;;21.20;72.30;;;;;;5065131;28;20215;-88
2021/09/13 09:21:05;;;;;;;6.55;6.03;;;21.30;73.10;;;;;;5080801;28;20191;-87
2021/09/13 09:23:30;;;;;;;6.13;5.53;;;21.50;73.10;;;;;;5078659;28;20290;-88
2021/09/13 09:26:11;;;;;;;7.47;6.15;;;21.70;71.70;;;;;;5063412;28;20663;-88
2021/09/13 09:28:38;;;;;;;5.85;5.32;;;21.90;70.10;;;;;;5082019;28;20197;-88
2021/09/13 09:31:03;;;;;;;7.05;6.35;;;21.90;69.60;;;;;;5070135;28;20195;-88
2021/09/13 09:33:29;;;;;;;7.30;5.53;;;21.70;69.70;;;;;;5077750;28;20694;-88
2021/09/13 09:35:57;;;;;;;6.75;5.45;;;22.00;69.70;;;;;;5080214;28;20191;-89
2021/09/13 09:38:38;;;;;;;6.20;5.50;;;22.20;68.20;;;;;;5080675;28;20631;-88
2021/09/13 09:41:17;;;;;;;6.13;4.60;;;22.30;66.40;;;;;;5058360;28;20192;-88
2021/09/13 09:44:02;;;;;;;5.30;4.90;;;22.50;66.70;;;;;;5066655;28;20230;-88
2021/09/13 09:46:42;;;;;;;10.20;5.07;;;22.70;65.90;;;;;;5065632;28;20206;-88
2021/09/13 09:49:15;;;;;;;6.90;5.00;;;22.90;64.90;;;;;;5068636;28;20675;-88
2021/09/13 09:51:49;;;;;;;6.43;5.50;;;23.00;65.10;;;;;;5054282;28;20187;-88
2021/09/13 09:54:26;;;;;;;6.53;4.95;;;23.10;63.90;;;;;;5079556;28;20250;-89
2021/09/13 09:57:04;;;;;;;5.90;5.03;;;23.10;63.60;;;;;;5079898;28;20203;-89
2021/09/13 09:59:41;;;;;;;6.03;4.95;;;23.20;62.90;;;;;;5079302;28;20180;-88
2021/09/13 10:02:18;;;;;;;5.07;4.68;;;23.40;62.60;;;;;;5065678;28;20191;-88
2021/09/13 10:04:52;;;;;;;5.82;5.10;;;23.40;61.90;;;;;;5088568;28;20187;-88
2021/09/13 10:07:19;;;;;;;4.85;4.35;;;23.50;62.20;;;;;;5072071;28;20199;-89
2021/09/13 10:09:45;;;;;;;9.55;4.93;;;23.70;62.20;;;;;;5058278;28;20183;-89
2021/09/13 10:12:13;;;;;;;4.93;4.53;;;23.70;61.70;;;;;;5059206;28;20560;-88
2021/09/13 10:14:39;;;;;;;5.00;4.43;;;23.60;62.10;;;;;;5061107;28;20210;-87
2021/09/13 10:17:06;;;;;;;5.20;4.70;;;24.00;61.90;;;;;;5074809;28;20587;-88
2021/09/13 10:19:33;;;;;;;5.82;4.78;;;24.20;60.70;;;;;;5074367;28;20192;-88
2021/09/13 10:21:58;;;;;;;7.68;4.55;;;24.10;60.10;;;;;;5057922;28;20215;-88
2021/09/13 10:24:28;;;;;;;5.75;4.72;;;24.30;60.70;;;;;;5074664;28;20677;-89
2021/09/13 10:26:58;;;;;;;4.80;4.40;;;24.50;59.80;;;;;;5037830;28;20211;-87
2021/09/13 10:29:26;;;;;;;5.63;4.65;;;24.90;59.30;;;;;;5047129;28;20191;-87
2021/09/13 10:31:51;;;;;;;6.15;4.57;;;24.80;58.10;;;;;;5044236;28;20241;-88
2021/09/13 10:34:40;;;;;;;5.38;4.78;;;24.90;57.30;;;;;;5072427;28;20209;-89
2021/09/13 10:37:13;;;;;;;5.32;4.60;;;24.90;57.40;;;;;;5068513;28;20265;-88
2021/09/13 10:39:57;;;;;;;5.07;4.68;;;25.00;57.80;;;;;;5068604;28;20554;-89
2021/09/13 10:42:27;;;;;;;4.75;4.35;;;25.20;56.70;;;;;;5060475;28;20210;-89
2021/09/13 10:45:11;;;;;;;4.90;4.50;;;25.30;57.00;;;;;;5065754;28;20184;-89
2021/09/13 10:47:39;;;;;;;4.38;4.07;;;25.50;55.60;;;;;;5067339;28;20215;-90
2021/09/13 10:50:37;;;;;;;5.75;4.82;;;25.90;55.40;;;;;;5058093;28;20188;-90
2021/09/13 10:53:24;;;;;;;4.88;4.20;;;26.00;54.80;;;;;;5075346;28;20203;-89
2021/09/13 10:55:59;;;;;;;5.38;4.80;;;26.40;54.60;;;;;;5052796;28;20188;-90
2021/09/13 10:58:50;;;;;;;4.82;4.30;;;26.30;53.10;;;;;;5053442;28;20211;-90
2021/09/13 11:01:25;;;;;;;5.25;4.45;;;26.30;53.40;;;;;;5058441;28;20883;-89
2021/09/13 11:04:06;;;;;;;4.50;4.10;;;26.50;53.20;;;;;;5075986;28;20220;-89
2021/09/13 11:06:44;;;;;;;4.75;4.38;;;26.70;51.70;;;;;;5072326;28;20219;-90
2021/09/13 11:09:16;;;;;;;5.63;4.82;;;27.00;51.10;;;;;;5087335;28;20195;-91
2021/09/13 11:12:00;;;;;;;4.65;4.25;;;27.00;51.50;;;;;;5067384;28;20247;-89
2021/09/13 11:14:28;;;;;;;6.20;3.72;;;26.90;52.60;;;;;;5059138;28;20309;-89
2021/09/13 11:16:57;;;;;;;5.28;4.38;;;27.20;50.90;;;;;;5057952;28;20208;-89
2021/09/13 11:19:26;;;;;;;4.40;4.00;;;27.20;49.50;;;;;;5042707;28;20260;-87
2021/09/13 11:21:58;;;;;;;6.45;4.45;;;27.30;48.70;;;;;;5060308;28;20187;-89
2021/09/13 11:24:39;;;;;;;4.28;3.88;;;27.20;47.90;;;;;;5066694;28;20830;-89
2021/09/13 11:27:08;;;;;;;4.20;3.90;;;27.50;47.90;;;;;;5064446;28;20214;-87
2021/09/13 11:29:48;;;;;;;4.45;4.05;;;27.80;47.50;;;;;;5076313;28;20192;-88
2021/09/13 11:32:16;;;;;;;4.40;3.80;;;27.40;47.90;;;;;;5085645;28;20183;-88
2021/09/13 11:34:47;;;;;;;4.60;4.20;;;27.80;48.60;;;;;;5091015;28;20188;-86
2021/09/13 11:37:14;;;;;;;3.80;3.42;;;28.10;48.40;;;;;;5088479;28;20207;-88
2021/09/13 11:39:47;;;;;;;4.65;4.25;;;28.20;47.40;;;;;;5067995;28;20199;-87
2021/09/13 11:42:16;;;;;;;4.38;4.00;;;27.90;46.40;;;;;;5063085;28;20671;-87
2021/09/13 11:45:02;;;;;;;3.95;3.65;;;27.80;46.40;;;;;;5065741;28;20267;-87
2021/09/13 11:47:31;;;;;;;5.38;4.38;;;27.90;47.20;;;;;;5054118;28;20207;-87
2021/09/13 11:50:00;;;;;;;4.47;4.13;;;28.40;46.80;;;;;;5069866;28;20188;-87
2021/09/13 11:52:31;;;;;;;5.25;4.30;;;28.60;45.40;;;;;;5071593;28;20295;-87
2021/09/13 11:55:11;;;;;;;4.68;4.20;;;28.60;45.80;;;;;;5053543;28;20577;-87
2021/09/13 11:57:44;;;;;;;4.55;4.15;;;28.60;45.40;;;;;;5068172;28;20235;-87
2021/09/13 12:00:20;;;;;;;4.13;3.83;;;29.00;46.20;;;;;;5052187;28;20176;-87
2021/09/13 12:02:50;;;;;;;4.78;4.32;;;29.30;44.70;;;;;;5064913;28;20262;-87
2021/09/13 12:05:18;;;;;;;4.30;4.00;;;29.30;43.30;;;;;;5065999;28;20188;-87
2021/09/13 12:07:46;;;;;;;4.07;3.72;;;29.40;44.00;;;;;;5064500;28;20204;-87
2021/09/13 12:10:21;;;;;;;4.55;4.20;;;29.40;44.00;;;;;;5049221;28;20188;-87
2021/09/13 12:12:50;;;;;;;4.32;3.92;;;29.30;45.00;;;;;;5074534;28;20213;-87
2021/09/13 12:15:17;;;;;;;4.90;4.50;;;29.40;45.60;;;;;;5068431;28;20192;-87
2021/09/13 12:17:49;;;;;;;6.60;4.40;;;29.60;45.10;;;;;;5065357;28;20217;-87
2021/09/13 12:20:29;;;;;;;5.40;4.40;;;29.80;43.80;;;;;;5075369;28;20199;-89
2021/09/13 12:23:03;;;;;;;5.00;4.30;;;30.00;44.70;;;;;;5081220;28;20234;-90
2021/09/13 12:25:31;;;;;;;5.20;4.70;;;29.60;45.80;;;;;;5078568;28;20179;-89
2021/09/13 12:28:01;;;;;;;4.05;3.78;;;30.00;45.00;;;;;;5069218;28;20211;-90
2021/09/13 12:30:30;;;;;;;7.53;4.35;;;30.40;43.20;;;;;;5080830;28;20210;-89
2021/09/13 12:32:59;;;;;;;5.45;4.03;;;30.70;42.30;;;;;;5071587;28;20200;-90
2021/09/13 12:35:38;;;;;;;4.93;4.53;;;30.50;42.90;;;;;;5077161;28;20191;-89
2021/09/13 12:38:07;;;;;;;4.47;4.18;;;30.40;42.50;;;;;;5054722;28;20246;-89
2021/09/13 12:40:50;;;;;;;5.93;4.68;;;30.40;43.10;;;;;;5066988;28;20191;-91
2021/09/13 12:43:22;;;;;;;5.55;4.82;;;30.60;42.90;;;;;;5077493;28;20570;-89
2021/09/13 12:45:48;;;;;;;4.88;4.47;;;30.80;41.50;;;;;;5079426;28;20206;-90
2021/09/13 12:48:25;;;;;;;4.88;4.30;;;30.60;41.30;;;;;;5078797;28;20256;-90
2021/09/13 12:50:55;;;;;;;4.50;4.10;;;30.80;40.90;;;;;;5048365;28;20180;-89
2021/09/13 12:53:33;;;;;;;4.78;4.30;;;31.10;41.70;;;;;;5036031;28;20283;-89
2021/09/13 12:56:15;;;;;;;4.25;3.95;;;31.10;42.30;;;;;;5061993;28;20195;-89